Terminal Aerodrome Forecast
Issued by NWS

Home | Current Version | Previous Version | Text Only | Print | Product List | Glossary On
Versions: 1 2 3 4 5 6 7 8 9 10 11 12 13 14 15 16 17 18 19 20 21 22 23 24
825
FTUS43 KAPX 201732 AAA
TAFPLN
TAF AMD
KPLN 201732Z 2018/2118 10006KT 3SM BR OVC002
     FM202000 09006KT 5SM BR VCSH OVC005
     FM210500 00000KT 3/4SM -FZDZ BR OVC003
     FM211400 VRB03KT 3/4SM -DZ OVC003=

USA.gov is the U.S. government's official web portal to all federal, state and local government web resources and services.